Skip Navigation LinksHome page > Weather > Current weather Skip Navigation Links

Current Weather

New Tokyo International (Narita), Tokyo

For information only: do not use for flight planning or navigation.
Latest weather
Observation time Saturday, October 25, 2014 10:00 PM JST
Local time Saturday, October 25, 2014 10:21 PM JST
Flight conditions Visual Meteorological Conditions
Winds
Wind direction South (170°)
Wind speed 2 mph
Visibility 6.2 mi.
Sky condition
Ceiling unlimited
Cloud layer few clouds 3,000 ft.
Cloud layer scattered clouds 18,000 ft.
Temperature 59°F
Dewpoint 57°F
Altimeter 30.21 in.Hg
Derived measurements
Relative humidity 94%
Density altitude 37 ft.
Remarks
No significant changes expected in the next two hours.
METAR RJAA 251300Z 17002KT 9999 FEW030 SCT180 15/14 Q1023 NOSIG RMK 1CU030 3AC180 A3021

Settings

Location code

InnerDrive.Weather 4.0.5399.0 Release CLR 4.0.30319.34014
Copyright ©2014 Inner Drive Technology. All rights reserved. Portions Copyright ©1986-2014 David Braverman.

Find weather

Site navigation


Skip Navigation Links

Place info

Page info

PayPal - The safer, easier way to pay online!

Return home.

Copyright ©2014 Inner Drive Technology. Purveyors of fine, hand-crafted computer software. Page printed 2014-10-25T13:21:35 UTC.